Omega, Louisiana
Current Conditions -  °F | °C
As of 7:20 AM on Friday 24 Oct 2014 (Local Time) from KTVR Reporting Station
Haze Haze  
Wind Chill: 38°   Ceiling: Unl
Heat Index: 38°   Visibility: 2mi
Dew Point: 36°   Wind: 0mph
Humidity: 93%   Direction: NA
Pressure: 30.15"   Gusts: NA
Location:  32.5752°N, 91.2825°W
Report Text: KTVR 241220Z AUTO 00000KT 2SM BR CLR 03/02 A3015 RMK AO2 T00330022
Loading
Personal Weather Stations






























Interactive Weather Map
Tropical Storm Tracking
New forecast layout! Learn more

10-Day Weather Forecast

Advertisements
Track Severe Weather on mobile